Saint Augusta, Minnesota
Current Conditions -  °F | °C
As of 8:34 PM on Tuesday 21 Oct 2014 (Local Time) from KMGG Reporting Station
Clear Clear  
Wind Chill: 51°   Ceiling: Unl
Heat Index: 51°   Visibility: 10mi
Dew Point: 42°   Wind: 6mph
Humidity: 71%   Direction: 110°ESE
Pressure: 30.13"   Gusts: NA
Location:  45.3547°N, 94.3058°W
Report Text: KMGG 220134Z AUTO 11005KT 10SM CLR 11/06 A3013 RMK AO2 T01060056
Loading
Personal Weather Stations






























Interactive Weather Map New forecast layout! Learn more

10-Day Weather Forecast

Advertisements
Track Severe Weather on mobile